Terminal Aerodrome Forecast
Issued by NWS Grand Junction, CO

Home | Current Version | Previous Version | Text Only | Print | Product List | Glossary On
Versions: 1 2 3 4 5 6 7 8 9 10 11 12 13 14
000
FTUS45 KGJT 230536
TAFGJT
TAF
KGJT 230536Z 2306/2406 08005KT P6SM FEW250
     FM231100 09004KT P6SM FEW150 SCT250
     FM231800 31004KT P6SM FEW140 FEW250
     FM232100 29006KT P6SM FEW140 FEW250
     FM240200 01005KT P6SM FEW150 FEW250=

USA.gov is the U.S. government's official web portal to all federal, state and local government web resources and services.